createdAt,value
2022-12-18T00:01:26.833Z,99437.78
2022-12-18T00:03:54.956Z,99438.25
2022-12-18T00:06:22.886Z,99429.09
2022-12-18T00:08:49.927Z,99434.63
2022-12-18T00:11:20.330Z,99431.50
2022-12-18T00:13:47.707Z,99422.63
2022-12-18T00:16:22.914Z,99424.25
2022-12-18T00:18:51.026Z,99429.47
2022-12-18T00:21:17.994Z,99419.66
2022-12-18T00:23:45.854Z,99420.81
2022-12-18T00:26:16.216Z,99423.94
2022-12-18T00:28:44.369Z,99423.13
2022-12-18T00:31:18.996Z,99427.53
2022-12-18T00:33:45.959Z,99429.47
2022-12-18T00:36:18.424Z,99430.81
2022-12-18T00:38:46.716Z,99441.22
2022-12-18T00:41:15.015Z,99447.44
2022-12-18T00:43:42.057Z,99443.00
2022-12-18T00:46:08.926Z,99434.97
2022-12-18T00:48:36.397Z,99443.78
2022-12-18T00:51:03.112Z,99446.53
2022-12-18T00:53:29.845Z,99436.59
2022-12-18T00:55:56.611Z,99425.38
2022-12-18T00:58:23.380Z,99423.44
2022-12-18T01:00:50.126Z,99433.84
2022-12-18T01:03:16.971Z,99440.00
2022-12-18T01:05:44.479Z,99443.63
2022-12-18T01:08:11.963Z,99441.94
2022-12-18T01:10:41.844Z,99438.50
2022-12-18T01:13:09.084Z,99448.31
2022-12-18T01:15:36.013Z,99451.41
2022-12-18T01:18:02.912Z,99450.50
2022-12-18T01:20:33.072Z,99448.47
2022-12-18T01:22:59.734Z,99447.09
2022-12-18T01:25:27.412Z,99453.75
2022-12-18T01:27:54.287Z,99447.91
2022-12-18T01:30:20.922Z,99455.00
2022-12-18T01:32:47.731Z,99450.31
2022-12-18T01:35:14.545Z,99444.84
2022-12-18T01:37:41.204Z,99446.69
2022-12-18T01:40:08.655Z,99454.91
2022-12-18T01:42:35.332Z,99453.06
2022-12-18T01:45:17.278Z,99450.16
2022-12-18T01:48:07.263Z,99448.28
2022-12-18T01:50:41.536Z,99447.75
2022-12-18T01:53:13.637Z,99453.00
2022-12-18T01:55:51.168Z,99470.50
2022-12-18T01:58:23.588Z,99457.66
2022-12-18T02:00:50.683Z,99445.50
2022-12-18T02:03:20.010Z,99445.09
2022-12-18T02:06:03.943Z,99436.53
2022-12-18T02:08:52.306Z,99442.38
2022-12-18T02:11:28.508Z,99444.94
2022-12-18T02:14:17.169Z,99439.38
2022-12-18T02:16:49.885Z,99440.09
2022-12-18T02:19:45.839Z,99447.44
2022-12-18T02:22:41.409Z,99455.59
2022-12-18T02:25:46.718Z,99448.25
2022-12-18T02:28:18.057Z,99454.94
2022-12-18T02:30:50.001Z,99456.81
2022-12-18T02:33:18.198Z,99450.50
2022-12-18T02:35:46.521Z,99436.31
2022-12-18T02:38:15.474Z,99433.81
2022-12-18T02:40:46.013Z,99438.16
2022-12-18T02:43:16.861Z,99440.69
2022-12-18T02:45:54.808Z,99444.16
2022-12-18T02:48:26.855Z,99434.75
2022-12-18T02:51:11.902Z,99423.31
2022-12-18T02:53:46.516Z,99433.88
2022-12-18T02:56:20.886Z,99438.63
2022-12-18T02:58:58.189Z,99443.47
2022-12-18T03:01:46.306Z,99441.25
2022-12-18T03:04:22.185Z,99433.94
2022-12-18T03:06:54.150Z,99437.97
2022-12-18T03:09:28.936Z,99443.69
2022-12-18T03:12:26.343Z,99446.09
2022-12-18T03:15:05.712Z,99441.00
2022-12-18T03:17:34.724Z,99448.28
2022-12-18T03:20:10.001Z,99445.38
2022-12-18T03:22:39.218Z,99453.63
2022-12-18T03:25:10.422Z,99452.53
2022-12-18T03:27:43.192Z,99445.50
2022-12-18T03:30:13.640Z,99451.34
2022-12-18T03:33:08.743Z,99458.22
2022-12-18T03:35:42.734Z,99470.28
2022-12-18T03:38:11.783Z,99468.28
2022-12-18T03:40:48.900Z,99469.66
2022-12-18T03:43:40.575Z,99458.47
2022-12-18T03:46:36.556Z,99457.56
2022-12-18T03:49:07.709Z,99457.34
2022-12-18T03:51:42.876Z,99450.66
2022-12-18T03:54:11.352Z,99451.13
2022-12-18T03:56:49.376Z,99458.63
2022-12-18T03:59:18.053Z,99460.22
2022-12-18T04:01:48.445Z,99461.94
2022-12-18T04:04:17.237Z,99455.97
2022-12-18T04:06:46.679Z,99454.09
2022-12-18T04:09:13.850Z,99444.94
2022-12-18T04:11:47.371Z,99445.84
2022-12-18T04:14:18.022Z,99448.44
2022-12-18T04:16:46.702Z,99454.91
2022-12-18T04:19:16.239Z,99447.25
2022-12-18T04:21:44.678Z,99440.25
2022-12-18T04:24:12.952Z,99432.34
2022-12-18T04:26:46.236Z,99437.41
2022-12-18T04:29:18.528Z,99443.72
2022-12-18T04:31:45.178Z,99447.88
2022-12-18T04:34:12.355Z,99441.88
2022-12-18T04:36:44.931Z,99437.06
2022-12-18T04:39:13.297Z,99438.75
2022-12-18T04:41:42.101Z,99444.06
2022-12-18T04:44:09.443Z,99443.28
2022-12-18T04:46:36.156Z,99450.72
2022-12-18T04:49:02.960Z,99437.34
2022-12-18T04:51:29.642Z,99444.97
2022-12-18T04:53:56.369Z,99452.78
2022-12-18T04:56:23.168Z,99455.72
2022-12-18T04:58:49.880Z,99467.78
2022-12-18T05:01:18.583Z,99465.84
2022-12-18T05:03:45.742Z,99464.50
2022-12-18T05:06:12.667Z,99468.31
2022-12-18T05:08:39.396Z,99473.19
2022-12-18T05:11:12.605Z,99470.72
2022-12-18T05:13:39.823Z,99464.16
2022-12-18T05:16:07.480Z,99473.19
2022-12-18T05:18:34.854Z,99475.06
2022-12-18T05:21:01.846Z,99487.06
2022-12-18T05:23:28.941Z,99496.81
2022-12-18T05:26:00.991Z,99503.22
2022-12-18T05:28:29.343Z,99503.75
2022-12-18T05:30:58.729Z,99514.94
2022-12-18T05:33:28.152Z,99525.50
2022-12-18T05:36:02.931Z,99516.53
2022-12-18T05:38:30.991Z,99517.13
2022-12-18T05:40:58.575Z,99508.59
2022-12-18T05:43:26.686Z,99516.50
2022-12-18T05:45:54.582Z,99514.13
2022-12-18T05:48:21.977Z,99516.09
2022-12-18T05:50:50.171Z,99508.38
2022-12-18T05:53:20.140Z,99515.94
2022-12-18T05:55:47.810Z,99513.59
2022-12-18T05:58:15.367Z,99509.84
2022-12-18T06:00:45.278Z,99513.41
2022-12-18T06:03:13.342Z,99506.50
2022-12-18T06:05:42.748Z,99514.38
2022-12-18T06:08:10.210Z,99509.41
2022-12-18T06:10:37.367Z,99507.03
2022-12-18T06:13:04.066Z,99509.28
2022-12-18T06:15:30.795Z,99507.47
2022-12-18T06:17:57.495Z,99513.41
2022-12-18T06:20:26.896Z,99511.38
2022-12-18T06:22:57.155Z,99513.31
2022-12-18T06:25:23.803Z,99513.00
2022-12-18T06:27:50.466Z,99521.50
2022-12-18T06:30:17.081Z,99523.59
2022-12-18T06:32:43.700Z,99520.84
2022-12-18T06:35:10.611Z,99520.31
2022-12-18T06:37:37.270Z,99520.78
2022-12-18T06:40:04.347Z,99519.41
2022-12-18T06:42:31.055Z,99512.91
2022-12-18T06:44:57.767Z,99512.66
2022-12-18T06:47:24.582Z,99516.19
2022-12-18T06:49:51.186Z,99512.72
2022-12-18T06:52:17.985Z,99513.44
2022-12-18T06:54:44.724Z,99526.00
2022-12-18T06:57:16.432Z,99515.28
2022-12-18T06:59:43.135Z,99517.88
2022-12-18T07:02:13.516Z,99524.97
2022-12-18T07:04:40.281Z,99531.59
2022-12-18T07:07:07.206Z,99531.44
2022-12-18T07:09:34.004Z,99528.69
2022-12-18T07:12:00.741Z,99538.09
2022-12-18T07:14:27.539Z,99539.59
2022-12-18T07:16:54.890Z,99540.34
2022-12-18T07:19:24.482Z,99549.81
2022-12-18T07:21:52.086Z,99558.53
2022-12-18T07:24:18.759Z,99551.66
2022-12-18T07:26:48.557Z,99559.06
2022-12-18T07:29:16.512Z,99557.88
2022-12-18T07:31:45.549Z,99576.44
2022-12-18T07:34:16.197Z,99589.06
2022-12-18T07:36:43.126Z,99589.25
2022-12-18T07:39:11.791Z,99589.66
2022-12-18T07:41:41.330Z,99582.03
2022-12-18T07:44:12.036Z,99583.69
2022-12-18T07:46:38.896Z,99583.25
2022-12-18T07:49:05.604Z,99580.03
2022-12-18T07:51:32.274Z,99567.59
2022-12-18T07:54:01.606Z,99562.44
2022-12-18T07:56:29.930Z,99559.63
2022-12-18T07:58:57.566Z,99549.28
2022-12-18T08:01:25.149Z,99546.00
2022-12-18T08:03:52.525Z,99544.50
2022-12-18T08:06:24.246Z,99546.94
2022-12-18T08:08:53.499Z,99538.56
2022-12-18T08:11:20.370Z,99545.31
2022-12-18T08:13:48.200Z,99551.72
2022-12-18T08:16:14.958Z,99542.13
2022-12-18T08:18:41.593Z,99542.56
2022-12-18T08:21:12.846Z,99539.44
2022-12-18T08:23:42.938Z,99546.03
2022-12-18T08:26:11.893Z,99552.50
2022-12-18T08:28:38.993Z,99555.19
2022-12-18T08:31:05.813Z,99549.28
2022-12-18T08:33:33.665Z,99546.53
2022-12-18T08:36:01.241Z,99550.88
2022-12-18T08:38:28.073Z,99553.34
2022-12-18T08:41:02.416Z,99542.25
2022-12-18T08:43:47.946Z,99536.34
2022-12-18T08:46:18.030Z,99531.47
2022-12-18T08:48:47.983Z,99536.25
2022-12-18T08:51:18.227Z,99544.13
2022-12-18T08:53:45.831Z,99551.25
2022-12-18T08:56:13.229Z,99551.47
2022-12-18T08:58:41.355Z,99561.03
2022-12-18T09:01:10.784Z,99573.31
2022-12-18T09:03:38.463Z,99583.56
2022-12-18T09:06:06.210Z,99575.28
2022-12-18T09:08:36.284Z,99580.97
2022-12-18T09:11:03.123Z,99574.28
2022-12-18T09:13:29.953Z,99587.25
2022-12-18T09:15:56.731Z,99595.38
2022-12-18T09:18:24.687Z,99599.75
2022-12-18T09:20:53.356Z,99596.72
2022-12-18T09:23:21.294Z,99603.81
2022-12-18T09:25:48.167Z,99616.50
2022-12-18T09:28:16.722Z,99612.97
2022-12-18T09:30:46.602Z,99607.66
2022-12-18T09:33:13.836Z,99603.41
2022-12-18T09:35:42.335Z,99599.72
2022-12-18T09:38:13.867Z,99591.38
2022-12-18T09:40:48.246Z,99600.50
2022-12-18T09:43:28.062Z,99586.00
2022-12-18T09:46:04.063Z,99596.88
2022-12-18T09:48:39.302Z,99592.91
2022-12-18T09:51:15.803Z,99596.34
2022-12-18T09:53:47.700Z,99602.53
2022-12-18T09:56:19.367Z,99603.78
2022-12-18T09:59:03.465Z,99603.69
2022-12-18T10:01:41.551Z,99599.47
2022-12-18T10:04:11.327Z,99595.81
2022-12-18T10:06:53.565Z,99603.63
2022-12-18T10:09:29.608Z,99599.97
2022-12-18T10:12:10.574Z,99585.84
2022-12-18T10:14:54.972Z,99580.16
2022-12-18T10:17:24.265Z,99577.88
2022-12-18T10:20:02.872Z,99569.47
2022-12-18T10:22:41.782Z,99555.47
2022-12-18T10:25:30.198Z,99555.22
2022-12-18T10:28:09.703Z,99550.78
2022-12-18T10:30:36.455Z,99551.06
2022-12-18T10:33:04.069Z,99555.09
2022-12-18T10:35:30.744Z,99542.72
2022-12-18T10:38:01.665Z,99543.78
2022-12-18T10:40:28.715Z,99546.19
2022-12-18T10:43:16.066Z,99548.63
2022-12-18T10:45:58.312Z,99536.28
2022-12-18T10:48:25.508Z,99529.41
2022-12-18T10:53:42.228Z,99512.38
2022-12-18T10:56:09.874Z,99526.41
2022-12-18T10:58:39.360Z,99524.50
2022-12-18T11:01:17.780Z,99518.31
2022-12-18T11:04:02.636Z,99518.53
2022-12-18T11:06:30.066Z,99511.28
2022-12-18T11:09:12.842Z,99505.06
2022-12-18T11:11:40.103Z,99503.25
2022-12-18T11:14:14.515Z,99497.84
2022-12-18T11:17:25.402Z,99491.84
2022-12-18T11:19:40.678Z,99487.34
2022-12-18T11:22:28.497Z,99478.06
2022-12-18T11:25:31.876Z,99489.44
2022-12-18T11:27:59.944Z,99481.66
2022-12-18T11:30:31.479Z,99471.03
2022-12-18T11:33:07.573Z,99468.44
2022-12-18T11:35:40.744Z,99464.69
2022-12-18T11:38:13.336Z,99452.00
2022-12-18T11:40:44.892Z,99446.88
2022-12-18T11:43:18.523Z,99454.31
2022-12-18T11:46:19.947Z,99451.75
2022-12-18T11:48:50.965Z,99456.28
2022-12-18T11:51:29.513Z,99454.75
2022-12-18T11:53:56.161Z,99444.97
2022-12-18T11:56:46.358Z,99441.16
2022-12-18T11:59:45.391Z,99451.31
2022-12-18T12:02:30.410Z,99447.84
2022-12-18T12:05:06.305Z,99454.63
2022-12-18T12:07:59.751Z,99454.50
2022-12-18T12:10:37.496Z,99448.63
2022-12-18T12:13:41.032Z,99443.72
2022-12-18T12:16:22.785Z,99430.41
2022-12-18T12:18:49.572Z,99435.91
2022-12-18T12:21:36.806Z,99433.34
2022-12-18T12:24:22.037Z,99428.56
2022-12-18T12:27:28.075Z,99423.81
2022-12-18T12:30:10.373Z,99424.41
2022-12-18T12:33:13.436Z,99424.19
2022-12-18T12:36:14.177Z,99427.63
2022-12-18T12:38:52.871Z,99423.81
2022-12-18T12:41:44.203Z,99428.66
2022-12-18T12:44:17.444Z,99428.19
2022-12-18T12:46:44.956Z,99423.16
2022-12-18T12:49:18.355Z,99424.47
2022-12-18T12:51:50.485Z,99425.78
2022-12-18T12:54:21.767Z,99420.25
2022-12-18T12:57:11.993Z,99418.16
2022-12-18T13:00:04.706Z,99410.34
2022-12-18T13:02:48.464Z,99406.22
2022-12-18T13:05:36.275Z,99408.56
2022-12-18T13:08:24.197Z,99389.81
2022-12-18T13:11:14.340Z,99386.25
2022-12-18T13:13:51.780Z,99381.25
2022-12-18T13:16:21.745Z,99382.06
2022-12-18T13:18:54.088Z,99373.53
2022-12-18T13:21:29.302Z,99370.94
2022-12-18T13:23:57.252Z,99371.81
2022-12-18T13:29:10.619Z,99374.63
2022-12-18T13:31:40.172Z,99373.06
2022-12-18T13:34:27.602Z,99373.50
2022-12-18T13:36:58.212Z,99376.47
2022-12-18T13:39:34.878Z,99367.56
2022-12-18T13:42:08.866Z,99380.28
2022-12-18T13:44:41.654Z,99384.34
2022-12-18T13:47:27.512Z,99375.41
2022-12-18T13:49:57.074Z,99379.16
2022-12-18T13:52:28.573Z,99372.84
2022-12-18T13:54:58.633Z,99365.16
2022-12-18T13:57:31.801Z,99367.78
2022-12-18T13:59:59.120Z,99371.97
2022-12-18T14:02:28.449Z,99363.81
2022-12-18T14:04:56.443Z,99375.22
2022-12-18T14:07:29.674Z,99375.38
2022-12-18T14:10:12.279Z,99371.25
2022-12-18T14:13:03.127Z,99369.38
2022-12-18T14:15:41.877Z,99365.00
2022-12-18T14:18:20.815Z,99364.69
2022-12-18T14:20:52.523Z,99361.91
2022-12-18T14:23:46.270Z,99359.09
2022-12-18T14:26:22.953Z,99354.09
2022-12-18T14:28:50.946Z,99361.34
2022-12-18T14:31:23.937Z,99375.91
2022-12-18T14:33:51.759Z,99371.84
2022-12-18T14:36:24.397Z,99366.19
2022-12-18T14:38:56.329Z,99364.09
2022-12-18T14:41:24.674Z,99360.47
2022-12-18T14:43:53.569Z,99358.69
2022-12-18T14:46:36.793Z,99373.84
2022-12-18T14:49:30.286Z,99375.78
2022-12-18T14:52:02.772Z,99374.97
2022-12-18T14:54:30.776Z,99380.63
2022-12-18T14:57:22.269Z,99375.38
2022-12-18T14:59:49.196Z,99368.34
2022-12-18T15:02:26.202Z,99382.75
2022-12-18T15:05:14.501Z,99382.06
2022-12-18T15:07:50.639Z,99388.88
2022-12-18T15:10:23.082Z,99381.63
2022-12-18T15:13:00.779Z,99371.22
2022-12-18T15:15:40.490Z,99371.72
2022-12-18T15:18:13.350Z,99374.19
2022-12-18T15:20:45.945Z,99383.19
2022-12-18T15:23:18.751Z,99382.63
2022-12-18T15:25:47.694Z,99390.88
2022-12-18T15:28:33.104Z,99384.31
2022-12-18T15:31:24.789Z,99390.72
2022-12-18T15:33:54.821Z,99390.91
2022-12-18T15:36:26.326Z,99397.66
2022-12-18T15:38:57.595Z,99386.91
2022-12-18T15:41:35.746Z,99384.34
2022-12-18T15:44:04.393Z,99390.19
2022-12-18T15:46:31.767Z,99384.13
2022-12-18T15:49:02.247Z,99370.66
2022-12-18T15:51:32.590Z,99375.63
2022-12-18T15:54:01.787Z,99370.69
2022-12-18T15:56:46.976Z,99356.28
2022-12-18T15:59:16.623Z,99370.34
2022-12-18T16:01:47.680Z,99368.56
2022-12-18T16:04:17.097Z,99372.94
2022-12-18T16:07:12.642Z,99363.75
2022-12-18T16:09:30.478Z,99366.84
2022-12-18T16:11:57.185Z,99367.75
2022-12-18T16:14:30.550Z,99367.47
2022-12-18T16:17:06.293Z,99357.38
2022-12-18T16:19:33.051Z,99351.63
2022-12-18T16:21:59.892Z,99371.72
2022-12-18T16:24:31.747Z,99366.66
2022-12-18T16:27:00.428Z,99374.50
2022-12-18T16:29:29.133Z,99368.00
2022-12-18T16:32:00.124Z,99359.09
2022-12-18T16:34:29.418Z,99355.94
2022-12-18T16:37:05.539Z,99360.91
2022-12-18T16:39:35.387Z,99371.16
2022-12-18T16:42:05.973Z,99370.84
2022-12-18T16:44:34.445Z,99369.66
2022-12-18T16:47:03.039Z,99375.00
2022-12-18T16:49:30.714Z,99369.22
2022-12-18T16:51:57.527Z,99378.16
2022-12-18T16:54:24.307Z,99380.19
2022-12-18T16:56:51.964Z,99378.16
2022-12-18T16:59:19.465Z,99377.16
2022-12-18T17:01:47.330Z,99374.00
2022-12-18T17:04:15.090Z,99372.38
2022-12-18T17:06:45.367Z,99371.72
2022-12-18T17:09:15.751Z,99365.59
2022-12-18T17:11:43.331Z,99363.94
2022-12-18T17:14:15.877Z,99367.50
2022-12-18T17:16:42.993Z,99365.78
2022-12-18T17:19:15.350Z,99361.13
2022-12-18T17:21:45.245Z,99366.19
2022-12-18T17:24:11.914Z,99362.78
2022-12-18T17:26:38.602Z,99363.00
2022-12-18T17:29:05.714Z,99353.53
2022-12-18T17:31:33.100Z,99347.06
2022-12-18T17:34:03.043Z,99345.94
2022-12-18T17:36:32.184Z,99340.50
2022-12-18T17:39:05.818Z,99337.16
2022-12-18T17:41:32.892Z,99338.16
2022-12-18T17:44:05.688Z,99331.81
2022-12-18T17:46:33.947Z,99333.06
2022-12-18T17:49:03.271Z,99322.03
2022-12-18T17:51:31.014Z,99327.06
2022-12-18T17:53:57.824Z,99327.50
2022-12-18T17:56:24.968Z,99332.09
2022-12-18T17:58:52.038Z,99334.16
2022-12-18T18:01:24.649Z,99323.03
2022-12-18T18:03:53.736Z,99319.19
2022-12-18T18:06:20.801Z,99324.13
2022-12-18T18:08:48.047Z,99328.34
2022-12-18T18:11:36.298Z,99315.47
2022-12-18T18:14:05.663Z,99300.28
2022-12-18T18:16:38.937Z,99292.97
2022-12-18T18:19:08.646Z,99283.66
2022-12-18T18:21:39.222Z,99297.03
2022-12-18T18:24:07.707Z,99297.34
2022-12-18T18:26:35.504Z,99287.00
2022-12-18T18:29:05.173Z,99291.38
2022-12-18T18:31:36.899Z,99288.31
2022-12-18T18:34:13.750Z,99296.81
2022-12-18T18:36:40.569Z,99296.06
2022-12-18T18:39:07.305Z,99295.66
2022-12-18T18:41:36.088Z,99291.75
2022-12-18T18:44:02.856Z,99294.78
2022-12-18T18:46:29.456Z,99290.47
2022-12-18T18:48:56.184Z,99280.25
2022-12-18T18:51:23.923Z,99278.59
2022-12-18T18:53:52.690Z,99278.09
2022-12-18T18:59:12.039Z,99284.13
2022-12-18T19:01:38.969Z,99278.34
2022-12-18T19:04:06.541Z,99281.84
2022-12-18T19:06:33.437Z,99289.03
2022-12-18T19:09:02.315Z,99293.78
2022-12-18T19:11:47.562Z,99298.47
2022-12-18T19:14:15.548Z,99292.72
2022-12-18T19:16:44.954Z,99282.41
2022-12-18T19:19:13.131Z,99285.97
2022-12-18T19:21:40.785Z,99277.84
2022-12-18T19:24:07.805Z,99269.03
2022-12-18T19:26:36.302Z,99275.34
2022-12-18T19:29:08.581Z,99273.47
2022-12-18T19:31:37.248Z,99284.63
2022-12-18T19:34:06.919Z,99290.41
2022-12-18T19:36:39.261Z,99286.28
2022-12-18T19:39:14.867Z,99275.16
2022-12-18T19:41:42.644Z,99272.13
2022-12-18T19:44:11.950Z,99268.03
2022-12-18T19:46:41.693Z,99267.56
2022-12-18T19:49:13.641Z,99275.69
2022-12-18T19:51:45.602Z,99270.13
2022-12-18T19:54:16.715Z,99264.97
2022-12-18T19:56:44.955Z,99258.78
2022-12-18T19:59:12.019Z,99256.69
2022-12-18T20:01:38.747Z,99259.47
2022-12-18T20:04:05.846Z,99264.72
2022-12-18T20:06:35.663Z,99253.50
2022-12-18T20:09:06.035Z,99250.50
2022-12-18T20:11:34.862Z,99259.34
2022-12-18T20:14:13.717Z,99254.38
2022-12-18T20:16:41.495Z,99253.75
2022-12-18T20:19:10.605Z,99257.16
2022-12-18T20:21:37.528Z,99248.66
2022-12-18T20:24:04.519Z,99253.78
2022-12-18T20:26:31.146Z,99255.81
2022-12-18T20:28:58.338Z,99250.81
2022-12-18T20:31:25.108Z,99246.34
2022-12-18T20:33:54.401Z,99246.16
2022-12-18T20:36:24.524Z,99248.22
2022-12-18T20:38:55.780Z,99243.22
2022-12-18T20:41:24.877Z,99253.53
2022-12-18T20:43:51.764Z,99256.22
2022-12-18T20:46:18.926Z,99252.00
2022-12-18T20:48:46.023Z,99257.56
2022-12-18T20:51:15.622Z,99257.50
2022-12-18T20:53:43.158Z,99263.56
2022-12-18T20:56:21.885Z,99257.50
2022-12-18T20:58:50.349Z,99256.47
2022-12-18T21:01:20.932Z,99260.91
2022-12-18T21:03:48.428Z,99260.97
2022-12-18T21:06:17.025Z,99254.09
2022-12-18T21:08:44.253Z,99258.03
2022-12-18T21:11:38.828Z,99253.38
2022-12-18T21:14:10.516Z,99251.16
2022-12-18T21:16:37.762Z,99244.31
2022-12-18T21:19:04.508Z,99241.91
2022-12-18T21:21:34.062Z,99240.94
2022-12-18T21:24:06.095Z,99242.94
2022-12-18T21:26:33.081Z,99244.13
2022-12-18T21:29:03.334Z,99246.50
2022-12-18T21:31:34.220Z,99247.47
2022-12-18T21:34:02.393Z,99241.56
2022-12-18T21:36:30.873Z,99254.94
2022-12-18T21:38:58.690Z,99257.28
2022-12-18T21:41:45.499Z,99252.47
2022-12-18T21:44:18.157Z,99256.16
2022-12-18T21:46:55.638Z,99255.34
2022-12-18T21:49:25.422Z,99258.47
2022-12-18T21:51:55.594Z,99261.28
2022-12-18T21:54:23.056Z,99256.97
2022-12-18T21:56:53.821Z,99259.09
2022-12-18T21:59:28.564Z,99259.94
2022-12-18T22:01:57.952Z,99267.81
2022-12-18T22:04:25.897Z,99263.56
2022-12-18T22:06:53.067Z,99263.41
2022-12-18T22:09:22.079Z,99269.84
2022-12-18T22:11:49.730Z,99264.41
2022-12-18T22:14:19.773Z,99260.75
2022-12-18T22:16:46.773Z,99257.88
2022-12-18T22:19:14.165Z,99250.94
2022-12-18T22:21:45.511Z,99253.53
2022-12-18T22:24:16.716Z,99247.47
2022-12-18T22:26:43.701Z,99244.44
2022-12-18T22:29:34.822Z,99243.81
2022-12-18T22:32:02.609Z,99239.94
2022-12-18T22:34:34.199Z,99244.50
2022-12-18T22:37:01.519Z,99236.53
2022-12-18T22:39:29.451Z,99231.50
2022-12-18T22:41:57.672Z,99234.09
2022-12-18T22:44:27.092Z,99233.28
2022-12-18T22:47:05.532Z,99240.31
2022-12-18T22:49:34.716Z,99246.66
2022-12-18T22:52:02.875Z,99238.94
2022-12-18T22:54:29.633Z,99239.81
2022-12-18T22:56:56.963Z,99238.28
2022-12-18T22:59:24.037Z,99233.06
2022-12-18T23:01:52.971Z,99240.78
2022-12-18T23:04:31.205Z,99247.78
2022-12-18T23:07:06.802Z,99243.56
2022-12-18T23:09:33.836Z,99237.41
2022-12-18T23:12:01.119Z,99234.47
2022-12-18T23:14:28.859Z,99234.00
2022-12-18T23:16:55.596Z,99235.69
2022-12-18T23:19:23.586Z,99226.88
2022-12-18T23:21:51.223Z,99221.44
2022-12-18T23:24:18.166Z,99213.09
2022-12-18T23:26:44.865Z,99204.31
2022-12-18T23:29:11.524Z,99187.94
2022-12-18T23:31:39.556Z,99188.00
2022-12-18T23:34:08.762Z,99172.53
2022-12-18T23:36:46.264Z,99175.13
2022-12-18T23:39:17.965Z,99167.50
2022-12-18T23:41:56.722Z,99172.41
2022-12-18T23:44:23.489Z,99173.06
2022-12-18T23:46:50.428Z,99161.03
2022-12-18T23:49:17.104Z,99169.41
2022-12-18T23:51:43.818Z,99167.53
2022-12-18T23:54:10.540Z,99169.81
2022-12-18T23:56:37.271Z,99171.25
2022-12-18T23:59:03.953Z,99174.66
